Terminal Aerodrome Forecast
Issued by NWS Des Moines, IA

Home | Current Version | Previous Version | Text Only | Print | Product List | Glossary On
Versions: 1 2 3 4 5 6 7 8 9 10 11 12 13 14 15 16 17 18 19 20 21 22 23 24 25 26 27 28 29 30 31 32 33 34 35 36 37 38
000
FTUS43 KDMX 230343 AAB
TAFDSM
TAF AMD
KDSM 230343Z 2304/2324 29017G25KT 5SM TSRA FEW020 BKN035CB BKN060
     FM230430 34008KT P6SM VCTS OVC060CB
     FM230500 34007KT P6SM BKN070
     FM231600 31014G22KT P6SM BKN110=

USA.gov is the U.S. government's official web portal to all federal, state and local government web resources and services.